sensor_id;sensor_type;location;lat;lon;timestamp;temperature;humidity
37222;DHT22;23119;51.842;-2.230;2023-02-01T00:01:14;6.70;99.90
37222;DHT22;23119;51.842;-2.230;2023-02-01T00:03:43;6.70;99.90
37222;DHT22;23119;51.842;-2.230;2023-02-01T00:06:11;6.80;99.90
37222;DHT22;23119;51.842;-2.230;2023-02-01T00:08:39;6.80;99.90
37222;DHT22;23119;51.842;-2.230;2023-02-01T00:11:10;6.80;99.90
37222;DHT22;23119;51.842;-2.230;2023-02-01T00:13:41;6.70;99.90
37222;DHT22;23119;51.842;-2.230;2023-02-01T00:16:15;6.70;99.90
37222;DHT22;23119;51.842;-2.230;2023-02-01T00:18:48;6.80;99.90
37222;DHT22;23119;51.842;-2.230;2023-02-01T00:21:19;6.80;99.90
37222;DHT22;23119;51.842;-2.230;2023-02-01T00:23:48;6.80;99.90
37222;DHT22;23119;51.842;-2.230;2023-02-01T00:26:16;6.80;99.90
37222;DHT22;23119;51.842;-2.230;2023-02-01T00:28:45;6.90;99.90
37222;DHT22;23119;51.842;-2.230;2023-02-01T00:31:14;6.90;99.90
37222;DHT22;23119;51.842;-2.230;2023-02-01T00:33:40;6.90;99.90
37222;DHT22;23119;51.842;-2.230;2023-02-01T00:36:09;6.90;99.90
37222;DHT22;23119;51.842;-2.230;2023-02-01T00:38:37;6.90;99.90
37222;DHT22;23119;51.842;-2.230;2023-02-01T00:41:05;6.90;99.90
37222;DHT22;23119;51.842;-2.230;2023-02-01T00:43:34;7.00;99.90
37222;DHT22;23119;51.842;-2.230;2023-02-01T00:46:07;7.00;99.90
37222;DHT22;23119;51.842;-2.230;2023-02-01T00:48:34;7.00;99.90
37222;DHT22;23119;51.842;-2.230;2023-02-01T00:51:09;7.00;99.90
37222;DHT22;23119;51.842;-2.230;2023-02-01T00:53:38;7.00;99.90
37222;DHT22;23119;51.842;-2.230;2023-02-01T00:56:04;7.00;99.90
37222;DHT22;23119;51.842;-2.230;2023-02-01T00:58:31;7.00;99.90
37222;DHT22;23119;51.842;-2.230;2023-02-01T01:01:07;7.00;99.90
37222;DHT22;23119;51.842;-2.230;2023-02-01T01:03:35;7.00;99.90
37222;DHT22;23119;51.842;-2.230;2023-02-01T01:06:07;6.90;99.90
37222;DHT22;23119;51.842;-2.230;2023-02-01T01:08:36;6.90;99.90
37222;DHT22;23119;51.842;-2.230;2023-02-01T01:11:10;6.90;99.90
37222;DHT22;23119;51.842;-2.230;2023-02-01T01:13:38;6.80;99.90
37222;DHT22;23119;51.842;-2.230;2023-02-01T01:16:06;6.80;99.90
37222;DHT22;23119;51.842;-2.230;2023-02-01T01:18:35;6.80;99.90
37222;DHT22;23119;51.842;-2.230;2023-02-01T01:21:04;6.80;99.90
37222;DHT22;23119;51.842;-2.230;2023-02-01T01:23:30;6.80;99.90
37222;DHT22;23119;51.842;-2.230;2023-02-01T01:25:58;6.80;99.90
37222;DHT22;23119;51.842;-2.230;2023-02-01T01:28:32;6.90;99.90
37222;DHT22;23119;51.842;-2.230;2023-02-01T01:30:57;6.90;99.90
37222;DHT22;23119;51.842;-2.230;2023-02-01T01:33:25;6.90;99.90
37222;DHT22;23119;51.842;-2.230;2023-02-01T01:35:54;7.00;99.90
37222;DHT22;23119;51.842;-2.230;2023-02-01T01:38:20;7.00;99.90
37222;DHT22;23119;51.842;-2.230;2023-02-01T01:40:51;7.10;99.90
37222;DHT22;23119;51.842;-2.230;2023-02-01T01:43:19;7.10;99.90
37222;DHT22;23119;51.842;-2.230;2023-02-01T01:45:49;7.20;99.90
37222;DHT22;23119;51.842;-2.230;2023-02-01T01:48:24;7.20;99.90
37222;DHT22;23119;51.842;-2.230;2023-02-01T01:51:16;7.20;99.90
37222;DHT22;23119;51.842;-2.230;2023-02-01T01:53:48;7.20;99.90
37222;DHT22;23119;51.842;-2.230;2023-02-01T01:56:15;7.20;99.90
37222;DHT22;23119;51.842;-2.230;2023-02-01T01:58:43;7.30;99.90
37222;DHT22;23119;51.842;-2.230;2023-02-01T02:01:19;7.30;99.90
37222;DHT22;23119;51.842;-2.230;2023-02-01T02:03:45;7.30;99.90
37222;DHT22;23119;51.842;-2.230;2023-02-01T02:09:04;7.30;99.90
37222;DHT22;23119;51.842;-2.230;2023-02-01T02:11:34;7.30;99.90
37222;DHT22;23119;51.842;-2.230;2023-02-01T02:14:04;7.40;99.90
37222;DHT22;23119;51.842;-2.230;2023-02-01T02:33:50;7.40;99.90
37222;DHT22;23119;51.842;-2.230;2023-02-01T02:39:08;7.40;99.90
37222;DHT22;23119;51.842;-2.230;2023-02-01T02:48:29;7.40;99.90
37222;DHT22;23119;51.842;-2.230;2023-02-01T02:51:03;7.40;99.90
37222;DHT22;23119;51.842;-2.230;2023-02-01T02:54:09;7.40;99.90
37222;DHT22;23119;51.842;-2.230;2023-02-01T02:56:59;7.40;99.90
37222;DHT22;23119;51.842;-2.230;2023-02-01T02:59:45;7.40;99.90
37222;DHT22;23119;51.842;-2.230;2023-02-01T03:02:31;7.40;99.90
37222;DHT22;23119;51.842;-2.230;2023-02-01T03:05:19;7.40;99.90
37222;DHT22;23119;51.842;-2.230;2023-02-01T03:10:48;7.40;99.90
37222;DHT22;23119;51.842;-2.230;2023-02-01T03:18:59;7.40;99.90
37222;DHT22;23119;51.842;-2.230;2023-02-01T03:21:43;7.40;99.90
37222;DHT22;23119;51.842;-2.230;2023-02-01T03:27:18;7.50;99.90
37222;DHT22;23119;51.842;-2.230;2023-02-01T03:32:20;7.40;99.90
37222;DHT22;23119;51.842;-2.230;2023-02-01T03:34:49;7.40;99.90
37222;DHT22;23119;51.842;-2.230;2023-02-01T03:37:26;7.40;99.90
37222;DHT22;23119;51.842;-2.230;2023-02-01T03:40:02;7.40;99.90
37222;DHT22;23119;51.842;-2.230;2023-02-01T03:42:37;7.40;99.90
37222;DHT22;23119;51.842;-2.230;2023-02-01T03:45:26;7.40;99.90
37222;DHT22;23119;51.842;-2.230;2023-02-01T03:47:55;7.40;99.90
37222;DHT22;23119;51.842;-2.230;2023-02-01T03:50:26;7.50;99.90
37222;DHT22;23119;51.842;-2.230;2023-02-01T03:53:27;7.50;99.90
37222;DHT22;23119;51.842;-2.230;2023-02-01T03:55:58;7.50;99.90
37222;DHT22;23119;51.842;-2.230;2023-02-01T03:58:27;7.50;99.90
37222;DHT22;23119;51.842;-2.230;2023-02-01T04:00:57;7.40;99.90
37222;DHT22;23119;51.842;-2.230;2023-02-01T04:03:26;7.40;99.90
37222;DHT22;23119;51.842;-2.230;2023-02-01T04:05:53;7.30;99.90
37222;DHT22;23119;51.842;-2.230;2023-02-01T04:08:22;7.30;99.90
37222;DHT22;23119;51.842;-2.230;2023-02-01T04:10:50;7.30;99.90
37222;DHT22;23119;51.842;-2.230;2023-02-01T04:13:18;7.20;99.90
37222;DHT22;23119;51.842;-2.230;2023-02-01T04:15:47;7.20;99.90
37222;DHT22;23119;51.842;-2.230;2023-02-01T04:18:15;7.20;99.90
37222;DHT22;23119;51.842;-2.230;2023-02-01T04:20:43;7.10;99.90
37222;DHT22;23119;51.842;-2.230;2023-02-01T04:23:11;7.10;99.90
37222;DHT22;23119;51.842;-2.230;2023-02-01T04:25:39;7.10;99.90
37222;DHT22;23119;51.842;-2.230;2023-02-01T04:28:07;7.20;99.90
37222;DHT22;23119;51.842;-2.230;2023-02-01T04:30:35;7.20;99.90
37222;DHT22;23119;51.842;-2.230;2023-02-01T04:33:10;7.20;99.90
37222;DHT22;23119;51.842;-2.230;2023-02-01T04:35:43;7.10;99.90
37222;DHT22;23119;51.842;-2.230;2023-02-01T04:38:16;7.20;99.90
37222;DHT22;23119;51.842;-2.230;2023-02-01T04:40:42;7.20;99.90
37222;DHT22;23119;51.842;-2.230;2023-02-01T04:43:11;7.10;99.90
37222;DHT22;23119;51.842;-2.230;2023-02-01T04:45:39;7.10;99.90
37222;DHT22;23119;51.842;-2.230;2023-02-01T04:48:09;7.10;99.90
37222;DHT22;23119;51.842;-2.230;2023-02-01T04:50:43;7.20;99.90
37222;DHT22;23119;51.842;-2.230;2023-02-01T04:53:11;7.20;99.90
37222;DHT22;23119;51.842;-2.230;2023-02-01T04:55:39;7.20;99.90
37222;DHT22;23119;51.842;-2.230;2023-02-01T04:58:08;7.20;99.90
37222;DHT22;23119;51.842;-2.230;2023-02-01T05:00:37;7.20;99.90
37222;DHT22;23119;51.842;-2.230;2023-02-01T05:03:03;7.20;99.90
37222;DHT22;23119;51.842;-2.230;2023-02-01T05:05:29;7.20;99.90
37222;DHT22;23119;51.842;-2.230;2023-02-01T05:07:55;7.20;99.90
37222;DHT22;23119;51.842;-2.230;2023-02-01T05:10:25;7.30;99.90
37222;DHT22;23119;51.842;-2.230;2023-02-01T05:12:55;7.30;99.90
37222;DHT22;23119;51.842;-2.230;2023-02-01T05:15:42;7.30;99.90
37222;DHT22;23119;51.842;-2.230;2023-02-01T05:18:10;7.30;99.90
37222;DHT22;23119;51.842;-2.230;2023-02-01T05:20:36;7.30;99.90
37222;DHT22;23119;51.842;-2.230;2023-02-01T05:23:11;7.30;99.90
37222;DHT22;23119;51.842;-2.230;2023-02-01T05:25:39;7.30;99.90
37222;DHT22;23119;51.842;-2.230;2023-02-01T05:28:07;7.30;99.90
37222;DHT22;23119;51.842;-2.230;2023-02-01T05:30:33;7.30;99.90
37222;DHT22;23119;51.842;-2.230;2023-02-01T05:33:03;7.40;99.90
37222;DHT22;23119;51.842;-2.230;2023-02-01T05:35:35;7.40;99.90
37222;DHT22;23119;51.842;-2.230;2023-02-01T05:38:02;7.40;99.90
37222;DHT22;23119;51.842;-2.230;2023-02-01T05:40:28;7.40;99.90
37222;DHT22;23119;51.842;-2.230;2023-02-01T05:42:57;7.40;99.90
37222;DHT22;23119;51.842;-2.230;2023-02-01T05:45:25;7.40;99.90
37222;DHT22;23119;51.842;-2.230;2023-02-01T05:47:53;7.40;99.90
37222;DHT22;23119;51.842;-2.230;2023-02-01T05:50:28;7.40;99.90
37222;DHT22;23119;51.842;-2.230;2023-02-01T05:52:53;7.40;99.90
37222;DHT22;23119;51.842;-2.230;2023-02-01T05:55:20;7.40;99.90
37222;DHT22;23119;51.842;-2.230;2023-02-01T05:58:06;7.40;99.90
37222;DHT22;23119;51.842;-2.230;2023-02-01T06:00:34;7.40;99.90
37222;DHT22;23119;51.842;-2.230;2023-02-01T06:03:00;7.40;99.90
37222;DHT22;23119;51.842;-2.230;2023-02-01T06:05:28;7.40;99.90
37222;DHT22;23119;51.842;-2.230;2023-02-01T06:08:00;7.40;99.90
37222;DHT22;23119;51.842;-2.230;2023-02-01T06:10:26;7.40;99.90
37222;DHT22;23119;51.842;-2.230;2023-02-01T06:12:54;7.40;99.90
37222;DHT22;23119;51.842;-2.230;2023-02-01T06:15:22;7.40;99.90
37222;DHT22;23119;51.842;-2.230;2023-02-01T06:17:48;7.40;99.90
37222;DHT22;23119;51.842;-2.230;2023-02-01T06:20:15;7.40;99.90
37222;DHT22;23119;51.842;-2.230;2023-02-01T06:22:43;7.40;99.90
37222;DHT22;23119;51.842;-2.230;2023-02-01T06:25:10;7.40;99.90
37222;DHT22;23119;51.842;-2.230;2023-02-01T06:27:36;7.40;99.90
37222;DHT22;23119;51.842;-2.230;2023-02-01T06:30:05;7.30;99.90
37222;DHT22;23119;51.842;-2.230;2023-02-01T06:32:32;7.30;99.90
37222;DHT22;23119;51.842;-2.230;2023-02-01T06:34:57;7.30;99.90
37222;DHT22;23119;51.842;-2.230;2023-02-01T06:37:28;7.30;99.90
37222;DHT22;23119;51.842;-2.230;2023-02-01T06:40:06;7.70;99.90
37222;DHT22;23119;51.842;-2.230;2023-02-01T06:42:33;7.40;99.90
37222;DHT22;23119;51.842;-2.230;2023-02-01T06:45:16;7.40;99.90
37222;DHT22;23119;51.842;-2.230;2023-02-01T06:47:47;7.40;99.90
37222;DHT22;23119;51.842;-2.230;2023-02-01T06:50:12;7.40;99.90
37222;DHT22;23119;51.842;-2.230;2023-02-01T06:52:38;7.40;99.90
37222;DHT22;23119;51.842;-2.230;2023-02-01T06:55:07;7.50;99.90
37222;DHT22;23119;51.842;-2.230;2023-02-01T06:57:33;7.50;99.90
37222;DHT22;23119;51.842;-2.230;2023-02-01T07:00:04;7.50;99.90
37222;DHT22;23119;51.842;-2.230;2023-02-01T07:02:30;7.50;99.90
37222;DHT22;23119;51.842;-2.230;2023-02-01T07:04:59;7.50;99.90
37222;DHT22;23119;51.842;-2.230;2023-02-01T07:07:27;7.50;99.90
37222;DHT22;23119;51.842;-2.230;2023-02-01T07:10:02;7.40;99.90
37222;DHT22;23119;51.842;-2.230;2023-02-01T07:12:28;7.50;99.90
37222;DHT22;23119;51.842;-2.230;2023-02-01T07:14:53;7.50;99.90
37222;DHT22;23119;51.842;-2.230;2023-02-01T07:17:19;7.50;99.90
37222;DHT22;23119;51.842;-2.230;2023-02-01T07:19:45;7.50;99.90
37222;DHT22;23119;51.842;-2.230;2023-02-01T07:22:10;7.60;99.90
37222;DHT22;23119;51.842;-2.230;2023-02-01T07:24:36;7.50;99.90
37222;DHT22;23119;51.842;-2.230;2023-02-01T07:27:04;7.50;99.90
37222;DHT22;23119;51.842;-2.230;2023-02-01T07:29:31;7.60;99.90
37222;DHT22;23119;51.842;-2.230;2023-02-01T07:31:59;7.50;99.90
37222;DHT22;23119;51.842;-2.230;2023-02-01T07:34:25;7.50;99.90
37222;DHT22;23119;51.842;-2.230;2023-02-01T07:37:00;7.40;99.90
37222;DHT22;23119;51.842;-2.230;2023-02-01T07:39:29;7.40;99.90
37222;DHT22;23119;51.842;-2.230;2023-02-01T07:42:00;7.40;99.90
37222;DHT22;23119;51.842;-2.230;2023-02-01T07:44:26;7.40;99.90
37222;DHT22;23119;51.842;-2.230;2023-02-01T07:46:56;7.40;99.90
37222;DHT22;23119;51.842;-2.230;2023-02-01T07:49:25;7.40;99.90
37222;DHT22;23119;51.842;-2.230;2023-02-01T07:51:51;7.40;99.90
37222;DHT22;23119;51.842;-2.230;2023-02-01T07:54:16;7.40;99.90
37222;DHT22;23119;51.842;-2.230;2023-02-01T07:56:45;7.40;99.90
37222;DHT22;23119;51.842;-2.230;2023-02-01T07:59:10;7.40;99.90
37222;DHT22;23119;51.842;-2.230;2023-02-01T08:01:42;7.40;99.90
37222;DHT22;23119;51.842;-2.230;2023-02-01T08:04:10;7.50;99.90
37222;DHT22;23119;51.842;-2.230;2023-02-01T08:06:39;7.50;99.90
37222;DHT22;23119;51.842;-2.230;2023-02-01T08:09:05;7.50;99.90
37222;DHT22;23119;51.842;-2.230;2023-02-01T08:11:38;7.60;99.90
37222;DHT22;23119;51.842;-2.230;2023-02-01T08:14:04;7.40;99.90
37222;DHT22;23119;51.842;-2.230;2023-02-01T08:16:33;7.60;99.90
37222;DHT22;23119;51.842;-2.230;2023-02-01T08:19:03;7.70;99.90
37222;DHT22;23119;51.842;-2.230;2023-02-01T08:21:29;7.70;99.90
37222;DHT22;23119;51.842;-2.230;2023-02-01T08:24:07;7.80;99.90
37222;DHT22;23119;51.842;-2.230;2023-02-01T08:26:36;7.80;99.90
37222;DHT22;23119;51.842;-2.230;2023-02-01T08:29:06;7.90;99.90
37222;DHT22;23119;51.842;-2.230;2023-02-01T08:31:32;7.90;99.90
37222;DHT22;23119;51.842;-2.230;2023-02-01T08:34:01;7.90;99.90
37222;DHT22;23119;51.842;-2.230;2023-02-01T08:36:30;8.00;99.90
37222;DHT22;23119;51.842;-2.230;2023-02-01T08:38:58;8.10;99.90
37222;DHT22;23119;51.842;-2.230;2023-02-01T08:41:30;8.20;99.90
37222;DHT22;23119;51.842;-2.230;2023-02-01T08:43:57;8.40;99.90
37222;DHT22;23119;51.842;-2.230;2023-02-01T08:46:32;8.60;99.90
37222;DHT22;23119;51.842;-2.230;2023-02-01T08:49:07;8.70;99.90
37222;DHT22;23119;51.842;-2.230;2023-02-01T08:51:33;8.90;99.90
37222;DHT22;23119;51.842;-2.230;2023-02-01T08:53:59;9.10;99.90
37222;DHT22;23119;51.842;-2.230;2023-02-01T08:56:26;9.20;99.90
37222;DHT22;23119;51.842;-2.230;2023-02-01T08:59:03;9.50;99.90
37222;DHT22;23119;51.842;-2.230;2023-02-01T09:01:31;9.90;99.90
37222;DHT22;23119;51.842;-2.230;2023-02-01T09:04:02;10.70;99.90
37222;DHT22;23119;51.842;-2.230;2023-02-01T09:06:27;11.80;99.90
37222;DHT22;23119;51.842;-2.230;2023-02-01T09:08:53;13.10;99.90
37222;DHT22;23119;51.842;-2.230;2023-02-01T09:11:21;14.20;99.90
37222;DHT22;23119;51.842;-2.230;2023-02-01T09:13:50;15.20;99.90
37222;DHT22;23119;51.842;-2.230;2023-02-01T09:16:18;16.00;99.90
37222;DHT22;23119;51.842;-2.230;2023-02-01T09:18:43;16.20;99.90
37222;DHT22;23119;51.842;-2.230;2023-02-01T09:21:11;16.30;99.90
37222;DHT22;23119;51.842;-2.230;2023-02-01T09:23:37;16.10;99.50
37222;DHT22;23119;51.842;-2.230;2023-02-01T09:26:05;15.90;99.10
37222;DHT22;23119;51.842;-2.230;2023-02-01T09:28:32;15.90;99.30
37222;DHT22;23119;51.842;-2.230;2023-02-01T09:30:59;15.70;98.90
37222;DHT22;23119;51.842;-2.230;2023-02-01T09:33:28;16.10;99.20
37222;DHT22;23119;51.842;-2.230;2023-02-01T09:35:58;16.40;98.60
37222;DHT22;23119;51.842;-2.230;2023-02-01T09:38:28;16.90;98.20
37222;DHT22;23119;51.842;-2.230;2023-02-01T09:40:59;17.70;97.80
37222;DHT22;23119;51.842;-2.230;2023-02-01T09:43:47;18.40;97.00
37222;DHT22;23119;51.842;-2.230;2023-02-01T09:46:24;18.50;95.90
37222;DHT22;23119;51.842;-2.230;2023-02-01T09:48:56;19.00;95.90
37222;DHT22;23119;51.842;-2.230;2023-02-01T09:51:38;19.10;95.30
37222;DHT22;23119;51.842;-2.230;2023-02-01T09:54:12;19.00;94.40
37222;DHT22;23119;51.842;-2.230;2023-02-01T09:56:49;18.40;94.80
37222;DHT22;23119;51.842;-2.230;2023-02-01T09:59:44;18.10;94.70
37222;DHT22;23119;51.842;-2.230;2023-02-01T10:02:19;17.40;95.30
37222;DHT22;23119;51.842;-2.230;2023-02-01T10:04:46;17.70;96.30
37222;DHT22;23119;51.842;-2.230;2023-02-01T10:15:22;15.30;97.40
37222;DHT22;23119;51.842;-2.230;2023-02-01T10:20:56;14.10;98.80
37222;DHT22;23119;51.842;-2.230;2023-02-01T10:26:16;13.00;99.90
37222;DHT22;23119;51.842;-2.230;2023-02-01T10:29:10;12.60;99.90
37222;DHT22;23119;51.842;-2.230;2023-02-01T10:31:40;12.20;99.90
37222;DHT22;23119;51.842;-2.230;2023-02-01T10:34:33;11.90;99.90
37222;DHT22;23119;51.842;-2.230;2023-02-01T10:39:49;11.50;99.90
37222;DHT22;23119;51.842;-2.230;2023-02-01T10:42:21;11.60;99.90
37222;DHT22;23119;51.842;-2.230;2023-02-01T10:44:48;11.50;99.90
37222;DHT22;23119;51.842;-2.230;2023-02-01T10:47:17;11.40;99.90
37222;DHT22;23119;51.842;-2.230;2023-02-01T10:52:38;11.20;99.90
37222;DHT22;23119;51.842;-2.230;2023-02-01T10:57:57;11.10;99.90
37222;DHT22;23119;51.842;-2.230;2023-02-01T11:00:26;9.50;99.90
37222;DHT22;23119;51.842;-2.230;2023-02-01T11:02:53;11.00;99.90
37222;DHT22;23119;51.842;-2.230;2023-02-01T11:05:22;10.90;99.90
37222;DHT22;23119;51.842;-2.230;2023-02-01T11:07:53;11.00;99.90
37222;DHT22;23119;51.842;-2.230;2023-02-01T11:10:49;10.90;99.90
37222;DHT22;23119;51.842;-2.230;2023-02-01T11:13:31;10.90;99.90
37222;DHT22;23119;51.842;-2.230;2023-02-01T11:16:03;10.90;99.90
37222;DHT22;23119;51.842;-2.230;2023-02-01T11:18:36;10.90;99.90
37222;DHT22;23119;51.842;-2.230;2023-02-01T11:21:06;10.90;99.90
37222;DHT22;23119;51.842;-2.230;2023-02-01T11:23:43;10.90;99.90
37222;DHT22;23119;51.842;-2.230;2023-02-01T11:26:19;11.00;99.90
37222;DHT22;23119;51.842;-2.230;2023-02-01T11:29:10;11.00;99.90
37222;DHT22;23119;51.842;-2.230;2023-02-01T11:31:37;11.00;99.90
37222;DHT22;23119;51.842;-2.230;2023-02-01T11:34:20;11.00;99.90
37222;DHT22;23119;51.842;-2.230;2023-02-01T11:36:50;11.00;99.90
37222;DHT22;23119;51.842;-2.230;2023-02-01T11:39:29;10.90;99.90
37222;DHT22;23119;51.842;-2.230;2023-02-01T11:42:14;11.00;99.90
37222;DHT22;23119;51.842;-2.230;2023-02-01T11:44:45;10.90;99.90
37222;DHT22;23119;51.842;-2.230;2023-02-01T11:47:26;10.90;99.90
37222;DHT22;23119;51.842;-2.230;2023-02-01T11:50:05;11.00;99.90
37222;DHT22;23119;51.842;-2.230;2023-02-01T11:58:41;11.00;99.90
37222;DHT22;23119;51.842;-2.230;2023-02-01T12:05:00;11.00;99.90
37222;DHT22;23119;51.842;-2.230;2023-02-01T12:21:42;10.90;99.90
37222;DHT22;23119;51.842;-2.230;2023-02-01T12:30:49;10.90;99.90
37222;DHT22;23119;51.842;-2.230;2023-02-01T12:33:45;10.90;99.90
37222;DHT22;23119;51.842;-2.230;2023-02-01T12:39:22;10.90;99.90
37222;DHT22;23119;51.842;-2.230;2023-02-01T12:42:02;10.90;99.90
37222;DHT22;23119;51.842;-2.230;2023-02-01T12:44:55;10.90;99.90
37222;DHT22;23119;51.842;-2.230;2023-02-01T12:50:43;10.90;99.90
37222;DHT22;23119;51.842;-2.230;2023-02-01T12:53:22;10.80;99.90
37222;DHT22;23119;51.842;-2.230;2023-02-01T12:56:01;10.80;99.90
37222;DHT22;23119;51.842;-2.230;2023-02-01T12:58:43;11.30;99.90
37222;DHT22;23119;51.842;-2.230;2023-02-01T13:01:26;10.90;99.90
37222;DHT22;23119;51.842;-2.230;2023-02-01T13:04:17;10.90;99.90
37222;DHT22;23119;51.842;-2.230;2023-02-01T13:11:45;10.90;99.90
37222;DHT22;23119;51.842;-2.230;2023-02-01T13:15:14;10.90;99.90
37222;DHT22;23119;51.842;-2.230;2023-02-01T13:17:18;10.90;99.90
37222;DHT22;23119;51.842;-2.230;2023-02-01T13:19:57;10.90;99.90
37222;DHT22;23119;51.842;-2.230;2023-02-01T13:22:39;10.90;99.90
37222;DHT22;23119;51.842;-2.230;2023-02-01T13:25:13;10.90;99.90
37222;DHT22;23119;51.842;-2.230;2023-02-01T13:27:41;10.90;99.90
37222;DHT22;23119;51.842;-2.230;2023-02-01T13:30:23;11.00;99.90
37222;DHT22;23119;51.842;-2.230;2023-02-01T13:41:29;11.40;99.90
37222;DHT22;23119;51.842;-2.230;2023-02-01T13:44:03;11.60;99.90
37222;DHT22;23119;51.842;-2.230;2023-02-01T13:46:39;11.70;99.90
37222;DHT22;23119;51.842;-2.230;2023-02-01T13:49:23;11.70;99.90
37222;DHT22;23119;51.842;-2.230;2023-02-01T13:51:54;11.70;99.90
37222;DHT22;23119;51.842;-2.230;2023-02-01T13:54:32;11.70;99.90
37222;DHT22;23119;51.842;-2.230;2023-02-01T13:57:00;11.70;99.90
37222;DHT22;23119;51.842;-2.230;2023-02-01T14:13:40;11.40;99.90
37222;DHT22;23119;51.842;-2.230;2023-02-01T14:26:44;11.20;99.90
37222;DHT22;23119;51.842;-2.230;2023-02-01T14:32:20;11.10;99.90
37222;DHT22;23119;51.842;-2.230;2023-02-01T14:34:51;11.00;99.90
37222;DHT22;23119;51.842;-2.230;2023-02-01T14:42:39;10.90;99.90
37222;DHT22;23119;51.842;-2.230;2023-02-01T14:47:53;10.80;99.90
37222;DHT22;23119;51.842;-2.230;2023-02-01T15:06:36;10.70;99.90
37222;DHT22;23119;51.842;-2.230;2023-02-01T15:14:36;10.70;99.90
37222;DHT22;23119;51.842;-2.230;2023-02-01T15:17:15;10.70;99.90
37222;DHT22;23119;51.842;-2.230;2023-02-01T15:20:12;10.60;99.90
37222;DHT22;23119;51.842;-2.230;2023-02-01T15:22:51;10.60;99.90
37222;DHT22;23119;51.842;-2.230;2023-02-01T15:25:39;10.60;99.90
37222;DHT22;23119;51.842;-2.230;2023-02-01T15:28:13;10.60;99.90
37222;DHT22;23119;51.842;-2.230;2023-02-01T15:31:00;10.60;99.90
37222;DHT22;23119;51.842;-2.230;2023-02-01T15:33:29;10.50;99.90
37222;DHT22;23119;51.842;-2.230;2023-02-01T15:38:47;10.50;99.90
37222;DHT22;23119;51.842;-2.230;2023-02-01T15:41:14;10.50;99.90
37222;DHT22;23119;51.842;-2.230;2023-02-01T15:46:19;10.60;99.90
37222;DHT22;23119;51.842;-2.230;2023-02-01T15:48:53;10.90;99.90
37222;DHT22;23119;51.842;-2.230;2023-02-01T15:51:25;10.60;99.90
37222;DHT22;23119;51.842;-2.230;2023-02-01T15:53:52;10.60;99.90
37222;DHT22;23119;51.842;-2.230;2023-02-01T15:56:27;10.50;99.90
37222;DHT22;23119;51.842;-2.230;2023-02-01T15:59:00;9.90;99.90
37222;DHT22;23119;51.842;-2.230;2023-02-01T16:01:30;10.50;99.90
37222;DHT22;23119;51.842;-2.230;2023-02-01T16:06:33;10.50;99.90
37222;DHT22;23119;51.842;-2.230;2023-02-01T16:09:10;10.50;99.90
37222;DHT22;23119;51.842;-2.230;2023-02-01T16:14:51;10.50;99.90
37222;DHT22;23119;51.842;-2.230;2023-02-01T16:17:19;10.50;99.90
37222;DHT22;23119;51.842;-2.230;2023-02-01T16:19:45;10.40;99.90
37222;DHT22;23119;51.842;-2.230;2023-02-01T16:22:11;10.40;99.90
37222;DHT22;23119;51.842;-2.230;2023-02-01T16:24:36;10.40;99.90
37222;DHT22;23119;51.842;-2.230;2023-02-01T16:27:11;10.40;99.90
37222;DHT22;23119;51.842;-2.230;2023-02-01T16:29:37;10.40;99.90
37222;DHT22;23119;51.842;-2.230;2023-02-01T16:32:05;10.40;99.90
37222;DHT22;23119;51.842;-2.230;2023-02-01T16:34:34;10.40;99.90
37222;DHT22;23119;51.842;-2.230;2023-02-01T16:37:02;10.30;99.90
37222;DHT22;23119;51.842;-2.230;2023-02-01T16:39:28;10.30;99.90
37222;DHT22;23119;51.842;-2.230;2023-02-01T16:41:58;10.30;99.90
37222;DHT22;23119;51.842;-2.230;2023-02-01T16:44:23;10.30;99.90
37222;DHT22;23119;51.842;-2.230;2023-02-01T16:46:50;10.30;99.90
37222;DHT22;23119;51.842;-2.230;2023-02-01T16:49:30;10.20;99.90
37222;DHT22;23119;51.842;-2.230;2023-02-01T16:51:57;10.20;99.90
37222;DHT22;23119;51.842;-2.230;2023-02-01T16:54:26;11.20;99.90
37222;DHT22;23119;51.842;-2.230;2023-02-01T16:56:52;10.10;99.90
37222;DHT22;23119;51.842;-2.230;2023-02-01T16:59:19;10.10;99.90
37222;DHT22;23119;51.842;-2.230;2023-02-01T17:01:45;10.10;99.90
37222;DHT22;23119;51.842;-2.230;2023-02-01T17:04:10;10.00;99.90
37222;DHT22;23119;51.842;-2.230;2023-02-01T17:06:41;10.00;99.90
37222;DHT22;23119;51.842;-2.230;2023-02-01T17:09:12;10.00;99.90
37222;DHT22;23119;51.842;-2.230;2023-02-01T17:11:38;10.00;99.90
37222;DHT22;23119;51.842;-2.230;2023-02-01T17:14:15;9.90;99.90
37222;DHT22;23119;51.842;-2.230;2023-02-01T17:16:42;9.90;99.90
37222;DHT22;23119;51.842;-2.230;2023-02-01T17:19:16;9.90;99.90
37222;DHT22;23119;51.842;-2.230;2023-02-01T17:21:48;9.90;99.90
37222;DHT22;23119;51.842;-2.230;2023-02-01T17:24:18;9.90;99.90
37222;DHT22;23119;51.842;-2.230;2023-02-01T17:26:45;9.80;99.90
37222;DHT22;23119;51.842;-2.230;2023-02-01T17:29:19;9.80;99.90
37222;DHT22;23119;51.842;-2.230;2023-02-01T17:31:56;9.80;99.90
37222;DHT22;23119;51.842;-2.230;2023-02-01T17:34:25;9.80;99.90
37222;DHT22;23119;51.842;-2.230;2023-02-01T17:36:50;9.80;99.90
37222;DHT22;23119;51.842;-2.230;2023-02-01T17:39:16;9.70;99.90
37222;DHT22;23119;51.842;-2.230;2023-02-01T17:42:04;9.70;99.90
37222;DHT22;23119;51.842;-2.230;2023-02-01T17:44:32;9.70;99.90
37222;DHT22;23119;51.842;-2.230;2023-02-01T17:46:58;9.70;99.90
37222;DHT22;23119;51.842;-2.230;2023-02-01T17:49:26;9.70;99.90
37222;DHT22;23119;51.842;-2.230;2023-02-01T17:51:56;9.70;99.90
37222;DHT22;23119;51.842;-2.230;2023-02-01T17:54:22;9.70;99.90
37222;DHT22;23119;51.842;-2.230;2023-02-01T17:56:50;9.60;99.90
37222;DHT22;23119;51.842;-2.230;2023-02-01T17:59:15;9.60;99.90
37222;DHT22;23119;51.842;-2.230;2023-02-01T18:01:42;9.60;99.90
37222;DHT22;23119;51.842;-2.230;2023-02-01T18:04:16;9.60;99.90
37222;DHT22;23119;51.842;-2.230;2023-02-01T18:06:45;9.60;99.90
37222;DHT22;23119;51.842;-2.230;2023-02-01T18:09:10;9.60;99.90
37222;DHT22;23119;51.842;-2.230;2023-02-01T18:11:41;9.60;99.90
37222;DHT22;23119;51.842;-2.230;2023-02-01T18:14:10;9.60;99.90
37222;DHT22;23119;51.842;-2.230;2023-02-01T18:16:38;9.50;99.90
37222;DHT22;23119;51.842;-2.230;2023-02-01T18:19:04;9.50;99.90
37222;DHT22;23119;51.842;-2.230;2023-02-01T18:21:53;9.50;99.90
37222;DHT22;23119;51.842;-2.230;2023-02-01T18:24:21;9.50;99.90
37222;DHT22;23119;51.842;-2.230;2023-02-01T18:26:48;9.50;99.90
37222;DHT22;23119;51.842;-2.230;2023-02-01T18:29:16;9.50;99.90
37222;DHT22;23119;51.842;-2.230;2023-02-01T18:31:46;9.50;99.90
37222;DHT22;23119;51.842;-2.230;2023-02-01T18:34:16;9.50;99.90
37222;DHT22;23119;51.842;-2.230;2023-02-01T18:36:47;9.50;99.90
37222;DHT22;23119;51.842;-2.230;2023-02-01T18:39:18;9.50;99.90
37222;DHT22;23119;51.842;-2.230;2023-02-01T18:41:47;9.50;99.90
37222;DHT22;23119;51.842;-2.230;2023-02-01T18:44:15;9.50;99.90
37222;DHT22;23119;51.842;-2.230;2023-02-01T18:46:43;9.50;99.90
37222;DHT22;23119;51.842;-2.230;2023-02-01T18:49:09;9.50;99.90
37222;DHT22;23119;51.842;-2.230;2023-02-01T18:51:41;9.50;99.90
37222;DHT22;23119;51.842;-2.230;2023-02-01T18:54:13;9.50;99.90
37222;DHT22;23119;51.842;-2.230;2023-02-01T18:56:39;9.50;99.90